createdAt,value
2023-03-13T12:35:54.574Z,809.00
2023-03-13T12:39:54.920Z,895.00
2023-03-13T12:44:07.716Z,865.00
2023-03-13T12:47:54.951Z,886.00
2023-03-13T12:51:54.952Z,1044.00
2023-03-13T12:55:54.913Z,952.00
2023-03-13T12:59:54.434Z,948.00
2023-03-13T13:03:54.431Z,1044.00
2023-03-13T13:07:54.429Z,941.00
2023-03-13T13:11:54.405Z,916.00
2023-03-13T13:15:54.457Z,889.00
2023-03-13T13:19:54.430Z,900.00
2023-03-13T13:23:54.453Z,860.00
2023-03-13T13:27:53.940Z,841.00
2023-03-13T13:31:53.887Z,823.00
2023-03-13T13:35:53.926Z,817.00
2023-03-13T13:39:54.096Z,810.00
2023-03-13T13:43:53.915Z,792.00
2023-03-13T13:47:53.962Z,768.00
2023-03-13T13:51:53.431Z,759.00
2023-03-13T13:55:53.468Z,739.00
2023-03-13T13:59:53.186Z,734.00
2023-03-13T14:03:53.426Z,769.00
2023-03-13T14:07:53.420Z,850.00
2023-03-13T14:11:53.449Z,871.00
2023-03-13T14:15:53.097Z,886.00
2023-03-13T14:19:52.980Z,897.00
2023-03-13T14:23:52.973Z,888.00
2023-03-13T14:27:52.802Z,887.00
2023-03-13T14:31:53.145Z,887.00
2023-03-13T14:35:53.016Z,897.00
2023-03-13T14:39:52.949Z,892.00
2023-03-13T14:43:52.463Z,898.00
2023-03-13T14:47:52.948Z,1102.00
2023-03-13T14:51:52.975Z,891.00
2023-03-13T14:55:52.481Z,859.00
2023-03-13T14:59:52.499Z,791.00
2023-03-13T15:03:52.549Z,846.00
2023-03-13T15:07:52.445Z,869.00
2023-03-13T15:11:54.675Z,884.00
2023-03-13T15:15:52.530Z,879.00
2023-03-13T15:19:51.952Z,887.00
2023-03-13T15:23:51.951Z,886.00
2023-03-13T15:27:52.004Z,881.00
2023-03-13T15:31:52.154Z,879.00
2023-03-13T15:35:52.032Z,860.00
2023-03-13T15:39:51.458Z,781.00
2023-03-13T15:43:51.459Z,723.00
2023-03-13T15:47:51.494Z,697.00
2023-03-13T15:51:51.200Z,677.00
2023-03-13T15:55:51.459Z,655.00
2023-03-13T15:59:51.330Z,634.00
2023-03-13T16:03:51.492Z,616.00
2023-03-13T16:07:51.469Z,608.00
2023-03-13T16:11:51.578Z,608.00
2023-03-13T16:15:51.967Z,613.00
2023-03-13T16:19:51.996Z,621.00
2023-03-13T16:23:51.958Z,621.00
2023-03-13T16:27:51.992Z,615.00
2023-03-13T16:31:52.151Z,614.00
2023-03-13T16:35:52.464Z,615.00
2023-03-13T16:39:52.480Z,616.00
2023-03-13T16:43:52.671Z,617.00
2023-03-13T16:47:52.866Z,616.00
2023-03-13T16:51:53.093Z,622.00
2023-03-13T16:55:53.262Z,627.00
2023-03-13T16:59:53.471Z,624.00
2023-03-13T17:03:53.733Z,621.00
2023-03-13T17:07:53.918Z,622.00
2023-03-13T17:11:53.835Z,618.00
2023-03-13T17:15:54.863Z,617.00
2023-03-13T17:19:55.359Z,613.00
2023-03-13T17:23:53.735Z,612.00
2023-03-13T17:27:53.700Z,614.00
2023-03-13T17:31:53.656Z,616.00
2023-03-13T17:35:53.685Z,613.00
2023-03-13T17:39:53.616Z,615.00
2023-03-13T17:43:53.605Z,615.00
2023-03-13T17:47:53.535Z,618.00
2023-03-13T17:51:53.556Z,611.00
2023-03-13T17:55:53.648Z,608.00
2023-03-13T17:59:53.692Z,611.00
2023-03-13T18:03:53.723Z,609.00
2023-03-13T18:07:53.760Z,606.00
2023-03-13T18:11:53.888Z,610.00
2023-03-13T18:15:53.915Z,613.00
2023-03-13T18:19:53.892Z,614.00
2023-03-13T18:23:53.928Z,611.00
2023-03-13T18:27:53.974Z,607.00
2023-03-13T18:31:54.015Z,605.00
2023-03-13T18:35:54.058Z,605.00
2023-03-13T18:39:54.079Z,606.00
2023-03-13T18:43:54.153Z,606.00
2023-03-13T18:47:54.215Z,609.00
2023-03-13T18:51:54.272Z,608.00
2023-03-13T18:55:54.349Z,606.00
2023-03-13T18:59:54.465Z,608.00
2023-03-13T19:03:54.534Z,607.00
2023-03-13T19:07:54.640Z,609.00
2023-03-13T19:11:54.736Z,612.00
2023-03-13T19:15:54.872Z,606.00
2023-03-13T19:19:54.943Z,604.00
2023-03-13T19:23:55.055Z,605.00
2023-03-13T19:27:55.202Z,602.00
2023-03-13T19:31:55.390Z,603.00
2023-03-13T19:35:55.512Z,605.00
2023-03-13T19:39:55.593Z,603.00
2023-03-13T19:43:55.737Z,599.00
2023-03-13T19:47:55.932Z,596.00
2023-03-13T19:51:56.049Z,600.00
2023-03-13T19:55:56.237Z,606.00
2023-03-13T19:59:56.694Z,603.00
2023-03-13T20:03:56.642Z,597.00
2023-03-13T20:07:56.808Z,592.00
2023-03-13T20:11:57.018Z,592.00
2023-03-13T20:15:57.250Z,599.00
2023-03-13T20:19:57.462Z,600.00
2023-03-13T20:23:57.676Z,604.00
2023-03-13T20:27:57.874Z,601.00
2023-03-13T20:31:58.108Z,594.00
2023-03-13T20:35:58.352Z,589.00
2023-03-13T20:39:58.507Z,587.00
2023-03-13T20:43:58.736Z,592.00
2023-03-13T20:47:58.933Z,591.00
2023-03-13T20:51:59.169Z,594.00
2023-03-13T20:55:59.390Z,590.00
2023-03-13T20:59:59.618Z,589.00
2023-03-13T21:03:59.862Z,590.00
2023-03-13T21:08:00.155Z,590.00
2023-03-13T21:12:00.421Z,592.00
2023-03-13T21:16:00.609Z,595.00
2023-03-13T21:20:00.853Z,597.00
2023-03-13T21:24:01.137Z,594.00
2023-03-13T21:28:01.365Z,591.00
2023-03-13T21:32:01.610Z,590.00
2023-03-13T21:36:01.875Z,588.00
2023-03-13T21:40:02.081Z,591.00
2023-03-13T21:44:02.319Z,586.00
2023-03-13T21:48:02.537Z,578.00
2023-03-13T21:52:02.770Z,571.00
2023-03-13T21:56:03.024Z,573.00
2023-03-13T22:00:03.228Z,571.00
2023-03-13T22:04:03.470Z,573.00
2023-03-13T22:08:03.693Z,574.00
2023-03-13T22:12:03.950Z,577.00
2023-03-13T22:16:04.145Z,580.00
2023-03-13T22:20:04.415Z,574.00
2023-03-13T22:24:04.615Z,578.00
2023-03-13T22:28:04.939Z,570.00
2023-03-13T22:32:05.082Z,571.00
2023-03-13T22:36:05.404Z,570.00
2023-03-13T22:40:05.543Z,570.00
2023-03-13T22:44:05.793Z,564.00
2023-03-13T22:48:06.026Z,559.00
2023-03-13T22:52:06.271Z,561.00
2023-03-13T22:56:06.519Z,564.00
2023-03-13T23:00:06.799Z,560.00
2023-03-13T23:04:07.004Z,557.00
2023-03-13T23:08:07.228Z,559.00
2023-03-13T23:12:07.494Z,562.00
2023-03-13T23:16:07.734Z,556.00
2023-03-13T23:20:07.968Z,557.00
2023-03-13T23:24:08.152Z,559.00
2023-03-13T23:28:08.438Z,559.00
2023-03-13T23:32:08.655Z,559.00
2023-03-13T23:36:08.916Z,554.00
2023-03-13T23:40:09.125Z,558.00
2023-03-13T23:44:09.335Z,557.00
2023-03-13T23:48:09.571Z,555.00
2023-03-13T23:52:09.758Z,558.00
2023-03-13T23:56:10.032Z,564.00
